Time;durP1;ratioP1;P1;durP2;ratioP2;P2;SDS_P1;SDS_P2;PMS_P1;PMS_P2;Temp;Humidity;BMP_temperature;BMP_pressure;BME280_temperature;BME280_humidity;BME280_pressure;Samples;Min_cycle;Max_cycle;Signal;HPM_P1;HPM_P2
2022/05/07 00:01:28;;;;;;;24.63;17.88;;;;;;;12.38;84.96;102242.72;4984918;28;20393;-67
2022/05/07 00:03:53;;;;;;;25.30;21.27;;;;;;;12.37;84.50;102245.72;4989906;28;20018;-67
2022/05/07 00:06:19;;;;;;;27.40;19.92;;;;;;;12.30;84.40;102244.81;4984467;28;20026;-67
2022/05/07 00:08:44;;;;;;;24.38;19.63;;;;;;;12.23;84.50;102239.31;4986405;28;20089;-67
2022/05/07 00:11:10;;;;;;;25.17;19.10;;;;;;;12.20;85.01;102239.72;4967709;28;20038;-67
2022/05/07 00:13:35;;;;;;;25.77;20.73;;;;;;;12.16;85.17;102238.41;4993258;28;20048;-67
2022/05/07 00:19:02;;;;;;;29.85;21.33;;;;;;;12.10;85.22;102236.50;4886508;29;20228;-66
2022/05/07 00:21:27;;;;;;;27.40;22.38;;;;;;;12.08;85.08;102230.38;4965522;28;20121;-66
2022/05/07 00:23:52;;;;;;;31.27;24.25;;;;;;;12.03;85.13;102224.63;4984088;28;20082;-67
2022/05/07 00:26:18;;;;;;;31.95;24.77;;;;;;;12.01;85.40;102230.31;4999877;28;20034;-66
2022/05/07 00:28:44;;;;;;;30.73;23.95;;;;;;;12.03;85.73;102224.63;4986322;28;20041;-67
2022/05/07 00:31:10;;;;;;;27.88;23.50;;;;;;;12.05;85.57;102228.00;4984900;28;20715;-66
2022/05/07 00:33:35;;;;;;;28.95;22.67;;;;;;;12.03;85.43;102222.72;4985477;28;20033;-67
2022/05/07 00:36:01;;;;;;;25.88;21.88;;;;;;;12.00;85.24;102223.13;4988554;28;20041;-67
2022/05/07 00:38:26;;;;;;;25.95;21.00;;;;;;;11.98;85.54;102221.66;4985221;28;20022;-67
2022/05/07 00:40:52;;;;;;;24.90;20.90;;;;;;;11.92;85.70;102213.16;4984148;28;20037;-67
2022/05/07 00:43:17;;;;;;;24.88;21.17;;;;;;;11.92;86.14;102215.06;4984434;28;20034;-67
2022/05/07 00:45:44;;;;;;;24.48;20.45;;;;;;;11.85;85.78;102222.44;4985750;28;20050;-66
2022/05/07 00:48:10;;;;;;;28.60;21.45;;;;;;;11.82;86.03;102215.44;5004995;28;20018;-67
2022/05/07 00:53:22;;;;;;;25.80;22.55;;;;;;;11.79;85.98;102215.81;4982897;28;20057;-66
2022/05/07 00:55:48;;;;;;;28.13;22.83;;;;;;;11.79;86.43;102213.06;4984587;28;20041;-67
2022/05/07 00:58:14;;;;;;;28.25;22.02;;;;;;;11.82;86.22;102215.44;4985239;28;20018;-67
2022/05/07 01:00:39;;;;;;;26.52;22.15;;;;;;;11.86;86.44;102216.75;4999752;28;20087;-67
2022/05/07 01:03:04;;;;;;;26.02;21.48;;;;;;;11.84;86.63;102210.56;4990652;28;20034;-67
2022/05/07 01:05:31;;;;;;;25.30;21.02;;;;;;;11.87;86.59;102212.06;4983204;28;20041;-67
2022/05/07 01:07:57;;;;;;;24.30;20.80;;;;;;;11.84;86.87;102215.22;4983314;28;20470;-67
2022/05/07 01:10:23;;;;;;;22.88;20.20;;;;;;;11.83;87.46;102208.88;4986036;28;20072;-67
2022/05/07 01:12:49;;;;;;;24.63;20.55;;;;;;;11.84;87.29;102207.81;4982010;28;20121;-67
2022/05/07 01:15:14;;;;;;;26.35;21.23;;;;;;;11.81;86.99;102207.34;4989365;28;20120;-67
2022/05/07 01:17:39;;;;;;;26.00;21.60;;;;;;;11.79;87.35;102198.44;5004251;28;20021;-66
2022/05/07 01:20:09;;;;;;;27.20;21.55;;;;;;;11.77;87.23;102209.69;4998957;28;20370;-66
2022/05/07 01:22:35;;;;;;;27.67;22.17;;;;;;;11.72;87.23;102201.19;4984455;28;20046;-67
2022/05/07 01:25:01;;;;;;;26.65;22.55;;;;;;;11.69;87.41;102210.69;4983881;28;20420;-67
2022/05/07 01:27:26;;;;;;;25.83;22.00;;;;;;;11.67;87.82;102201.78;4982628;28;20374;-67
2022/05/07 01:29:52;;;;;;;28.15;23.10;;;;;;;11.65;87.66;102203.88;4982374;28;20020;-67
2022/05/07 01:32:18;;;;;;;27.98;22.70;;;;;;;11.65;88.09;102205.78;4983661;28;20038;-67
2022/05/07 01:34:43;;;;;;;27.80;22.67;;;;;;;11.62;87.81;102197.97;4984699;28;20027;-67
2022/05/07 01:37:08;;;;;;;27.38;23.02;;;;;;;11.58;87.84;102197.50;4988946;28;20030;-67
2022/05/07 01:39:34;;;;;;;27.17;22.52;;;;;;;11.58;87.94;102193.91;5003560;28;20480;-67
2022/05/07 01:41:59;;;;;;;31.75;24.75;;;;;;;11.54;88.00;102195.38;4986475;28;20769;-67
2022/05/07 01:44:24;;;;;;;28.70;24.10;;;;;;;11.52;88.04;102198.34;4983007;28;20110;-67
2022/05/07 01:49:34;;;;;;;26.83;22.40;;;;;;;11.44;88.45;102202.09;5003522;28;20049;-67
2022/05/07 01:51:59;;;;;;;26.90;22.98;;;;;;;11.47;88.63;102192.59;4985551;28;20038;-67
2022/05/07 01:54:26;;;;;;;25.55;21.67;;;;;;;11.48;88.97;102197.03;4983405;28;20090;-67
2022/05/07 01:56:52;;;;;;;28.67;22.17;;;;;;;11.48;89.08;102193.44;4981426;28;20500;-67
2022/05/07 01:59:17;;;;;;;28.30;23.10;;;;;;;11.44;89.19;102188.34;4987211;28;20066;-67
2022/05/07 02:01:42;;;;;;;28.75;23.55;;;;;;;11.41;88.51;102186.00;4983018;28;20026;-67
2022/05/07 02:04:07;;;;;;;29.85;23.70;;;;;;;11.37;88.36;102190.22;4982341;28;20031;-67
2022/05/07 02:06:33;;;;;;;31.45;25.30;;;;;;;11.39;88.79;102190.84;4982331;28;20030;-68
2022/05/07 02:08:58;;;;;;;32.60;27.20;;;;;;;11.34;88.77;102179.59;4995790;28;20026;-67
2022/05/07 02:11:23;;;;;;;34.63;28.85;;;;;;;11.33;88.69;102182.56;4983143;28;20481;-67
2022/05/07 02:13:48;;;;;;;38.72;29.83;;;;;;;11.30;88.81;102178.31;4981719;28;20049;-67
2022/05/07 02:16:14;;;;;;;35.55;29.83;;;;;;;11.31;88.94;102184.69;4983791;28;20080;-67
2022/05/07 02:18:39;;;;;;;34.95;29.80;;;;;;;11.27;89.03;102180.63;4983732;28;20038;-63
2022/05/07 02:21:04;;;;;;;39.22;29.45;;;;;;;11.28;88.74;102180.44;4969209;28;20045;-67
2022/05/07 02:23:29;;;;;;;35.60;30.38;;;;;;;11.22;88.07;102177.66;4982661;28;20041;-67
2022/05/07 02:25:55;;;;;;;38.10;30.58;;;;;;;11.20;88.87;102172.31;4979357;28;20038;-67
2022/05/07 02:28:20;;;;;;;40.92;31.83;;;;;;;11.19;88.91;102165.13;4991109;28;20029;-67
2022/05/07 02:30:45;;;;;;;38.47;31.95;;;;;;;11.24;88.99;102161.78;4984930;28;20045;-67
2022/05/07 02:33:10;;;;;;;38.33;32.45;;;;;;;11.18;88.88;102168.94;4983581;28;20030;-67
2022/05/07 02:35:37;;;;;;;40.45;31.38;;;;;;;11.22;89.00;102170.25;4981771;28;20518;-67
2022/05/07 02:38:02;;;;;;;38.67;33.20;;;;;;;11.20;89.29;102161.31;4991627;28;20126;-67
2022/05/07 02:40:27;;;;;;;40.15;34.00;;;;;;;11.23;89.15;102166.44;4982995;28;20034;-67
2022/05/07 02:42:53;;;;;;;38.55;32.88;;;;;;;11.21;89.02;102160.31;4982554;28;20039;-67
2022/05/07 02:45:18;;;;;;;43.53;34.50;;;;;;;11.22;88.96;102166.66;4983442;28;20442;-67
2022/05/07 02:47:44;;;;;;;38.83;33.10;;;;;;;11.15;89.56;102158.34;4983380;28;20041;-67
2022/05/07 02:50:11;;;;;;;39.38;33.38;;;;;;;11.13;89.66;102160.44;4983703;28;20389;-64
2022/05/07 02:52:38;;;;;;;42.95;35.60;;;;;;;11.12;89.41;102158.75;4997481;28;20032;-67
2022/05/07 02:55:05;;;;;;;43.10;34.58;;;;;;;11.12;89.77;102154.09;5006939;28;20021;-67
2022/05/07 02:57:31;;;;;;;37.90;33.17;;;;;;;11.17;89.85;102159.84;5035940;22;20064;-67
2022/05/07 02:59:56;;;;;;;39.72;33.80;;;;;;;11.18;89.96;102161.53;5024998;28;20025;-67
2022/05/07 03:02:21;;;;;;;38.58;33.95;;;;;;;11.17;89.58;102157.09;5024988;28;20391;-67
2022/05/07 03:04:47;;;;;;;41.92;34.10;;;;;;;11.19;89.61;102165.13;5025073;28;20028;-67
2022/05/07 03:07:16;;;;;;;41.35;33.38;;;;;;;11.19;89.76;102162.38;5025475;28;20070;-67
2022/05/07 03:09:41;;;;;;;41.13;33.65;;;;;;;11.19;89.61;102159.63;5025488;28;20240;-67
2022/05/07 03:12:09;;;;;;;40.50;33.50;;;;;;;11.20;89.48;102150.31;5027188;28;20045;-67
2022/05/07 03:14:34;;;;;;;44.77;35.07;;;;;;;11.20;89.70;102160.47;5024534;28;20114;-67
2022/05/07 03:16:59;;;;;;;44.03;35.67;;;;;;;11.16;89.64;102163.66;5025077;28;20085;-67
2022/05/07 03:19:25;;;;;;;42.25;34.47;;;;;;;11.13;89.59;102161.28;5026328;28;20120;-67
2022/05/07 03:21:50;;;;;;;41.35;34.35;;;;;;;11.13;90.42;102160.44;5023465;28;20022;-67
2022/05/07 03:24:16;;;;;;;43.05;34.08;;;;;;;11.14;90.23;102162.16;5025788;28;20357;-67
2022/05/07 03:26:41;;;;;;;40.33;31.83;;;;;;;11.11;90.51;102160.66;5026102;28;20113;-66
2022/05/07 03:29:06;;;;;;;40.22;32.13;;;;;;;11.15;90.39;102158.34;5025343;28;20030;-67
2022/05/07 03:31:32;;;;;;;36.28;30.23;;;;;;;11.13;90.75;102164.03;5024178;28;20037;-66
2022/05/07 03:33:57;;;;;;;36.28;30.30;;;;;;;11.11;90.54;102157.91;5025911;28;20104;-66
2022/05/07 03:36:22;;;;;;;33.63;29.42;;;;;;;11.04;90.44;102169.91;5025503;28;20476;-67
2022/05/07 03:38:48;;;;;;;35.92;30.45;;;;;;;11.00;91.25;102160.34;5025454;28;20024;-67
2022/05/07 03:41:14;;;;;;;33.05;28.42;;;;;;;10.98;91.50;102162.47;5025708;28;20029;-67
2022/05/07 03:43:40;;;;;;;36.17;29.38;;;;;;;10.94;91.38;102169.41;5025335;28;20116;-67
2022/05/07 03:46:06;;;;;;;35.53;28.98;;;;;;;10.89;91.30;102162.59;5023882;28;20619;-66
2022/05/07 03:48:32;;;;;;;32.63;27.33;;;;;;;10.89;91.62;102165.34;5025796;28;20048;-67
2022/05/07 03:50:57;;;;;;;32.75;27.80;;;;;;;10.93;92.02;102167.72;5025190;28;20448;-67
2022/05/07 03:53:32;;;;;;;34.53;28.65;;;;;;;10.93;91.81;102168.56;5026164;28;20040;-67
2022/05/07 03:55:57;;;;;;;35.42;29.00;;;;;;;10.96;91.95;102167.34;5024667;28;20459;-66
2022/05/07 03:58:22;;;;;;;37.73;31.37;;;;;;;10.99;91.81;102173.25;5024705;28;20025;-67
2022/05/07 04:00:47;;;;;;;39.45;31.48;;;;;;;11.04;91.81;102168.00;5022996;28;20022;-67
2022/05/07 04:03:13;;;;;;;39.90;31.13;;;;;;;11.03;91.78;102170.97;5025791;28;20045;-67
2022/05/07 04:05:39;;;;;;;38.53;32.92;;;;;;;11.03;92.00;102174.56;5024167;28;20666;-67
2022/05/07 04:08:05;;;;;;;39.10;32.22;;;;;;;11.04;91.28;102170.75;5024173;28;20030;-67
2022/05/07 04:10:30;;;;;;;38.53;32.47;;;;;;;11.10;91.92;102171.84;5023402;28;20077;-67
2022/05/07 04:12:55;;;;;;;35.20;30.42;;;;;;;11.08;91.56;102168.47;5023299;28;20130;-66
2022/05/07 04:15:21;;;;;;;38.95;31.42;;;;;;;11.10;92.10;102177.34;5023752;28;20044;-67
2022/05/07 04:17:47;;;;;;;40.85;30.98;;;;;;;11.07;91.64;102180.50;5025519;28;20021;-67
2022/05/07 04:20:13;;;;;;;38.92;33.03;;;;;;;11.06;91.58;102181.56;5025015;28;20057;-66
2022/05/07 04:22:38;;;;;;;39.95;32.55;;;;;;;11.07;91.78;102183.25;5024658;28;20111;-67
2022/05/07 04:25:08;;;;;;;39.55;31.80;;;;;;;11.08;92.47;102179.44;5024251;28;20029;-67
2022/05/07 04:27:34;;;;;;;41.35;32.45;;;;;;;11.11;91.77;102179.91;5023833;28;20120;-66
2022/05/07 04:29:59;;;;;;;37.80;31.73;;;;;;;11.14;91.98;102179.50;5025101;28;20149;-67
2022/05/07 04:32:25;;;;;;;37.58;30.90;;;;;;;11.20;91.91;102183.31;5023620;28;20423;-67
2022/05/07 04:34:50;;;;;;;40.80;32.67;;;;;;;11.21;91.56;102189.72;5024715;28;20033;-67
2022/05/07 04:37:16;;;;;;;37.95;33.22;;;;;;;11.25;91.48;102186.31;5024418;28;20040;-67
2022/05/07 04:39:41;;;;;;;40.92;33.22;;;;;;;11.29;90.85;102187.63;5022209;28;20065;-66
2022/05/07 04:42:06;;;;;;;39.42;33.53;;;;;;;11.33;91.23;102193.56;5027326;28;20120;-67
2022/05/07 04:44:32;;;;;;;38.60;32.25;;;;;;;11.34;91.29;102193.34;5023927;28;20398;-67
2022/05/07 04:46:57;;;;;;;36.50;29.63;;;;;;;11.37;90.52;102201.22;5024190;28;20029;-67
2022/05/07 04:49:23;;;;;;;38.47;31.50;;;;;;;11.42;91.28;102189.59;5022163;28;20029;-67
2022/05/07 04:51:50;;;;;;;36.65;30.58;;;;;;;11.49;91.10;102198.72;5024387;28;20025;-67
2022/05/07 04:54:20;;;;;;;34.50;28.70;;;;;;;11.55;90.72;102199.81;5023901;28;20716;-67
2022/05/07 04:56:49;;;;;;;38.63;30.98;;;;;;;11.57;90.56;102195.81;5023545;28;20040;-67
2022/05/07 04:59:15;;;;;;;36.22;30.67;;;;;;;11.62;90.50;102186.97;5023267;28;20120;-67
2022/05/07 05:01:41;;;;;;;37.13;29.90;;;;;;;11.68;90.33;102191.63;5024834;28;20021;-67
2022/05/07 05:04:06;;;;;;;37.45;29.45;;;;;;;11.75;89.88;102195.25;5040068;28;20029;-67
2022/05/07 05:06:32;;;;;;;38.58;30.75;;;;;;;11.84;89.31;102199.56;5021820;28;20171;-67
2022/05/07 05:08:57;;;;;;;35.13;30.65;;;;;;;11.89;89.55;102201.69;5024670;28;20064;-67
2022/05/07 05:11:22;;;;;;;36.67;30.65;;;;;;;11.95;89.17;102203.63;5022807;28;20183;-67
2022/05/07 05:13:47;;;;;;;36.03;29.80;;;;;;;12.03;88.88;102206.19;5023864;28;20036;-67
2022/05/07 05:16:13;;;;;;;36.50;29.92;;;;;;;12.11;88.63;102205.16;5022672;28;20442;-67
2022/05/07 05:18:38;;;;;;;38.65;30.77;;;;;;;12.16;89.27;102216.38;5025253;28;20135;-66
2022/05/07 05:21:04;;;;;;;38.10;31.60;;;;;;;12.23;88.80;102221.94;5023001;28;20636;-66
2022/05/07 05:23:30;;;;;;;38.40;31.67;;;;;;;12.28;88.69;102216.66;5023499;28;20036;-67
2022/05/07 05:25:55;;;;;;;40.47;32.95;;;;;;;12.37;88.92;102223.66;5019903;28;20124;-68
2022/05/07 05:28:21;;;;;;;37.35;32.08;;;;;;;12.44;87.10;102225.34;5022439;28;20181;-67
2022/05/07 05:30:51;;;;;;;40.53;32.50;;;;;;;12.53;85.25;102219.66;5024269;28;20040;-67
2022/05/07 05:33:16;;;;;;;41.70;31.80;;;;;;;12.62;85.00;102240.41;5022604;28;20044;-67
2022/05/07 05:35:41;;;;;;;41.30;30.75;;;;;;;12.71;83.97;102236.41;5022903;28;20021;-68
2022/05/07 05:38:07;;;;;;;41.53;30.75;;;;;;;12.78;82.94;102240.03;5024634;28;20049;-67
2022/05/07 05:40:33;;;;;;;40.05;31.33;;;;;;;12.84;82.76;102239.19;5023872;28;20040;-67
2022/05/07 05:42:58;;;;;;;38.90;31.27;;;;;;;12.91;82.81;102247.44;5021952;28;20571;-67
2022/05/07 05:45:23;;;;;;;39.95;31.27;;;;;;;12.95;81.68;102249.56;5022353;28;20033;-67
2022/05/07 05:47:49;;;;;;;39.63;30.35;;;;;;;12.99;80.67;102238.97;5024007;28;20379;-67
2022/05/07 05:50:14;;;;;;;40.00;30.25;;;;;;;13.02;81.18;102248.72;5021963;28;20034;-67
2022/05/07 05:52:40;;;;;;;41.72;30.98;;;;;;;13.06;80.90;102244.47;5019564;28;20121;-67
2022/05/07 05:55:05;;;;;;;38.50;29.98;;;;;;;13.09;80.02;102252.34;5021004;28;20033;-67
2022/05/07 05:57:30;;;;;;;38.50;29.05;;;;;;;13.10;79.41;102238.31;5021408;28;20038;-68
2022/05/07 05:59:56;;;;;;;39.67;29.88;;;;;;;13.14;79.59;102244.28;5022623;28;20032;-67
2022/05/07 06:02:22;;;;;;;38.33;28.77;;;;;;;13.17;79.49;102244.66;5020746;28;20029;-67
2022/05/07 06:04:48;;;;;;;38.05;27.90;;;;;;;13.22;79.12;102238.53;5022882;28;20056;-67
2022/05/07 06:07:13;;;;;;;41.78;27.75;;;;;;;13.26;79.02;102238.97;5021920;28;20060;-66
2022/05/07 06:09:39;;;;;;;41.55;30.10;;;;;;;13.29;79.49;102242.16;5022733;28;20030;-67
2022/05/07 06:12:04;;;;;;;40.10;28.45;;;;;;;13.34;78.64;102242.38;5023174;28;20037;-67
2022/05/07 06:14:29;;;;;;;38.55;27.63;;;;;;;13.40;78.68;102247.00;5021595;28;20025;-68
2022/05/07 06:16:55;;;;;;;35.47;27.65;;;;;;;13.47;78.63;102245.06;5035266;28;20037;-67
2022/05/07 06:19:20;;;;;;;41.67;27.42;;;;;;;13.54;79.12;102245.09;5020269;28;20026;-67
2022/05/07 06:21:45;;;;;;;38.08;26.83;;;;;;;13.60;78.73;102248.88;5022594;28;20443;-68
2022/05/07 06:29:38;;;;;;;42.47;28.85;;;;;;;13.83;78.02;102248.38;5022197;28;20079;-67
2022/05/07 06:32:03;;;;;;;39.22;26.67;;;;;;;13.89;77.65;102256.66;5020479;28;20472;-67
2022/05/07 06:34:29;;;;;;;39.80;26.98;;;;;;;13.95;78.18;102253.00;5036195;28;20167;-68
2022/05/07 06:36:57;;;;;;;36.38;27.00;;;;;;;14.03;77.30;102249.97;5020846;28;20629;-67
2022/05/07 06:39:23;;;;;;;38.28;27.10;;;;;;;14.09;76.76;102255.69;5019410;28;20056;-66
2022/05/07 06:41:51;;;;;;;39.47;26.60;;;;;;;14.19;77.46;102256.06;5023111;28;20531;-67
2022/05/07 06:44:17;;;;;;;42.20;28.27;;;;;;;14.30;76.00;102249.88;5020070;28;20025;-67
2022/05/07 06:46:42;;;;;;;39.10;26.42;;;;;;;14.43;76.54;102246.16;5023184;28;20044;-66
2022/05/07 06:49:07;;;;;;;38.50;26.77;;;;;;;14.58;76.02;102241.19;5022989;28;20025;-67
2022/05/07 06:51:34;;;;;;;43.80;26.17;;;;;;;14.76;75.75;102249.59;5022271;28;20026;-67
2022/05/07 06:53:59;;;;;;;44.63;26.85;;;;;;;14.99;74.87;102251.72;5022203;28;20515;-67
2022/05/07 06:56:24;;;;;;;36.90;26.85;;;;;;;15.07;73.61;102247.00;5018890;28;20049;-67
2022/05/07 06:58:50;;;;;;;40.53;26.05;;;;;;;15.14;73.94;102250.53;5019934;28;20496;-68
2022/05/07 07:01:15;;;;;;;40.15;25.05;;;;;;;15.18;73.25;102249.03;5017932;28;20063;-69
2022/05/07 07:03:40;;;;;;;37.78;24.95;;;;;;;15.23;74.11;102252.78;5021689;28;20037;-68
2022/05/07 07:06:06;;;;;;;36.08;24.42;;;;;;;15.26;73.14;102245.97;5020404;28;20014;-68
2022/05/07 07:08:31;;;;;;;36.85;24.17;;;;;;;15.31;72.77;102257.22;5021108;28;20028;-67
2022/05/07 07:10:58;;;;;;;33.25;24.35;;;;;;;15.32;73.26;102250.59;5022858;28;20041;-68
2022/05/07 07:13:23;;;;;;;38.50;24.58;;;;;;;15.33;72.06;102257.81;5021153;28;20037;-68
2022/05/07 07:15:49;;;;;;;35.13;24.35;;;;;;;15.34;72.19;102253.97;5022294;28;20030;-67
2022/05/07 07:18:14;;;;;;;37.08;23.05;;;;;;;15.36;71.88;102242.66;5021496;28;20026;-68
2022/05/07 07:20:41;;;;;;;42.78;24.55;;;;;;;15.37;71.69;102256.28;5022175;28;20037;-68
2022/05/07 07:23:07;;;;;;;36.80;23.45;;;;;;;15.44;71.18;102253.44;5022627;28;20413;-68
2022/05/07 07:25:32;;;;;;;40.45;23.30;;;;;;;15.55;71.17;102250.75;5021733;28;20488;-68
2022/05/07 07:27:58;;;;;;;39.00;22.73;;;;;;;15.65;70.00;102252.19;5021605;28;20023;-69
2022/05/07 07:30:23;;;;;;;34.40;23.42;;;;;;;15.76;69.71;102248.63;5021794;28;20430;-69
2022/05/07 07:32:48;;;;;;;35.22;23.20;;;;;;;15.85;69.11;102244.47;5021765;28;20456;-68
2022/05/07 07:35:14;;;;;;;34.83;23.30;;;;;;;16.03;69.16;102243.63;5022753;28;20020;-67
2022/05/07 07:37:39;;;;;;;35.95;23.08;;;;;;;16.13;68.71;102235.63;5026208;28;20562;-65
2022/05/07 07:40:05;;;;;;;36.00;23.00;;;;;;;16.21;68.12;102237.19;5026285;28;20024;-68
2022/05/07 07:42:31;;;;;;;36.47;22.08;;;;;;;16.35;66.85;102235.94;5038646;28;20072;-69
2022/05/07 07:47:59;;;;;;;36.65;22.92;;;;;;;16.74;66.14;102247.56;5025446;28;20468;-69
2022/05/07 07:50:29;;;;;;;35.05;21.42;;;;;;;16.93;64.72;102238.06;5024332;28;20033;-68
2022/05/07 07:52:55;;;;;;;37.78;20.77;;;;;;;17.07;63.08;102242.28;5026109;28;20392;-69
2022/05/07 07:55:22;;;;;;;35.22;21.20;;;;;;;17.14;63.36;102244.94;5024790;28;20017;-69
2022/05/07 07:57:47;;;;;;;31.83;21.50;;;;;;;17.22;63.59;102243.72;5023910;28;20543;-68
2022/05/07 08:00:13;;;;;;;35.55;20.27;;;;;;;17.35;63.76;102235.16;5025147;28;20129;-70
2022/05/07 08:02:53;;;;;;;33.80;19.95;;;;;;;17.49;62.43;102242.16;5025031;28;20616;-69
2022/05/07 08:05:31;;;;;;;52.08;22.52;;;;;;;17.62;62.15;102241.91;5024872;28;20021;-66
2022/05/07 08:13:24;;;;;;;35.85;21.52;;;;;;;18.04;60.30;102251.97;5024231;28;20040;-66
2022/05/07 08:15:50;;;;;;;33.80;21.35;;;;;;;18.20;59.95;102242.00;5024089;28;20034;-67
2022/05/07 08:18:16;;;;;;;37.40;22.55;;;;;;;18.39;58.97;102244.34;5024864;28;20037;-67
2022/05/07 08:20:42;;;;;;;34.58;21.35;;;;;;;18.53;59.02;102242.09;5023322;28;20033;-67
2022/05/07 08:23:08;;;;;;;37.83;24.00;;;;;;;18.74;58.29;102250.84;5025063;28;20116;-66
2022/05/07 08:25:34;;;;;;;34.08;22.52;;;;;;;19.11;57.50;102240.94;5024634;28;20021;-67
2022/05/07 08:27:59;;;;;;;37.78;23.08;;;;;;;19.43;56.35;102243.06;5023481;28;20048;-66
2022/05/07 08:30:25;;;;;;;35.33;21.27;;;;;;;19.57;55.40;102241.63;5022974;28;20472;-67
2022/05/07 08:32:51;;;;;;;38.28;21.95;;;;;;;19.70;56.41;102244.03;5025234;28;20018;-67
2022/05/07 08:35:16;;;;;;;37.58;23.27;;;;;;;19.79;53.23;102240.81;5024131;28;20034;-66
2022/05/07 08:37:42;;;;;;;39.95;24.02;;;;;;;19.79;53.04;102235.25;5024943;28;20356;-67
2022/05/07 08:40:08;;;;;;;34.73;23.50;;;;;;;19.65;53.50;102255.13;5024623;28;20030;-67
2022/05/07 08:42:36;;;;;;;34.70;22.75;;;;;;;19.74;53.20;102252.75;5022473;28;20300;-65
2022/05/07 08:45:01;;;;;;;;;;;;;;;19.96;55.79;102253.59;5025102;28;20471;-66
2022/05/07 08:47:26;;;;;;;32.45;20.42;;;;;;;19.97;52.19;102254.41;5024223;28;19913;-67
2022/05/07 08:49:55;;;;;;;31.58;20.25;;;;;;;19.97;51.22;102248.84;5024710;28;20026;-67
2022/05/07 08:52:21;;;;;;;;;;;;;;;20.24;53.53;102246.13;5024393;28;20061;-66
2022/05/07 08:54:46;;;;;;;28.67;19.42;;;;;;;20.18;51.12;102248.00;5023857;28;19921;-66
2022/05/07 08:57:12;;;;;;;31.90;20.15;;;;;;;20.49;51.42;102244.75;5023061;28;20099;-67
2022/05/07 08:59:38;;;;;;;37.92;20.65;;;;;;;20.69;49.47;102250.53;5023958;28;20112;-67
2022/05/07 09:02:04;;;;;;;34.20;20.95;;;;;;;20.80;50.11;102254.25;5024016;28;20033;-67
2022/05/07 09:04:29;;;;;;;28.88;18.98;;;;;;;20.72;50.46;102252.78;5023860;28;20033;-67
2022/05/07 09:06:57;;;;;;;35.08;21.58;;;;;;;20.65;50.53;102254.97;5022622;28;20029;-66
2022/05/07 09:09:22;;;;;;;;;;;;;;;20.85;52.14;102254.31;5024542;28;20032;-66
2022/05/07 09:11:47;;;;;;;30.93;19.90;;;;;;;20.43;51.11;102258.63;5023302;28;19917;-66
2022/05/07 09:14:14;;;;;;;28.83;19.27;;;;;;;20.38;50.61;102254.94;5021426;28;20046;-67
2022/05/07 09:16:41;;;;;;;30.25;18.60;;;;;;;20.32;50.53;102253.16;5023784;28;20284;-67
2022/05/07 09:19:24;;;;;;;25.83;16.47;;;;;;;20.44;50.35;102249.13;5024506;28;20387;-67
2022/05/07 09:21:50;;;;;;;28.42;16.73;;;;;;;21.47;47.72;102248.09;5023560;28;20033;-67
2022/05/07 09:24:16;;;;;;;26.70;15.77;;;;;;;23.01;43.97;102248.38;5021900;28;20093;-67
2022/05/07 09:26:44;;;;;;;24.83;15.95;;;;;;;24.23;42.12;102244.41;5023309;28;20022;-67
2022/05/07 09:29:11;;;;;;;24.40;13.95;;;;;;;25.54;39.04;102246.47;5022932;28;20029;-65
2022/05/07 09:31:41;;;;;;;23.58;14.90;;;;;;;26.30;37.60;102252.31;5023119;28;20579;-67
2022/05/07 09:36:59;;;;;;;24.88;14.35;;;;;;;27.83;33.98;102253.44;5026706;28;20040;-67
2022/05/07 09:39:32;;;;;;;23.25;13.25;;;;;;;28.82;32.69;102248.94;5022722;28;20021;-68
2022/05/07 09:41:58;;;;;;;20.60;12.60;;;;;;;29.70;31.54;102254.88;5021581;28;20029;-68
2022/05/07 09:44:26;;;;;;;23.02;13.00;;;;;;;30.18;28.79;102247.53;5023255;28;20033;-68
2022/05/07 09:46:52;;;;;;;25.80;14.50;;;;;;;30.12;29.54;102245.97;5022871;28;20098;-68
2022/05/07 09:49:19;;;;;;;23.23;13.57;;;;;;;30.45;28.89;102241.53;5022546;28;20464;-67
2022/05/07 09:51:44;;;;;;;24.92;14.20;;;;;;;30.50;28.18;102247.06;5023042;28;20850;-67
2022/05/07 09:59:39;;;;;;;24.60;15.15;;;;;;;30.63;27.08;102238.72;5022692;28;20691;-65
2022/05/07 10:02:28;;;;;;;27.53;16.00;;;;;;;31.04;29.00;102246.72;5022181;28;20109;-67
2022/05/07 10:05:13;;;;;;;27.15;14.93;;;;;;;31.23;27.19;102249.19;5021842;28;20310;-67
2022/05/07 10:07:49;;;;;;;27.05;16.20;;;;;;;31.32;27.63;102250.00;5021458;28;20013;-67
2022/05/07 10:10:27;;;;;;;25.05;14.77;;;;;;;32.27;27.33;102235.38;5022044;28;20041;-67
2022/05/07 10:12:56;;;;;;;24.20;14.90;;;;;;;32.54;25.73;102239.72;5020994;28;20043;-68
2022/05/07 10:15:23;;;;;;;27.25;15.38;;;;;;;32.78;24.59;102238.97;5022088;28;20052;-68
2022/05/07 10:18:07;;;;;;;29.63;16.30;;;;;;;33.28;24.68;102231.47;5021520;28;20117;-69
2022/05/07 10:20:46;;;;;;;25.05;15.32;;;;;;;33.88;25.03;102238.44;5022155;28;20039;-68
2022/05/07 10:23:13;;;;;;;25.27;15.20;;;;;;;34.18;23.99;102232.50;5022522;28;20554;-68
2022/05/07 10:25:39;;;;;;;24.42;14.35;;;;;;;33.91;23.40;102234.84;5022596;28;20438;-70
2022/05/07 10:28:13;;;;;;;25.60;15.43;;;;;;;33.52;24.82;102231.56;5021383;28;20391;-70
2022/05/07 10:30:46;;;;;;;26.08;15.60;;;;;;;33.48;24.78;102241.97;5022402;28;20029;-69
2022/05/07 10:33:12;;;;;;;23.48;14.20;;;;;;;33.95;22.56;102230.16;5021415;28;20033;-69
2022/05/07 10:35:52;;;;;;;25.70;13.65;;;;;;;34.07;23.14;102227.31;5022169;28;20034;-69
2022/05/07 10:38:23;;;;;;;23.77;15.00;;;;;;;33.52;23.49;102225.84;5033297;28;20038;-71
2022/05/07 10:41:05;;;;;;;21.42;13.43;;;;;;;33.70;23.60;102225.59;5021493;28;20063;-70
2022/05/07 10:43:36;;;;;;;26.40;14.05;;;;;;;34.58;23.86;102226.84;5021177;28;20032;-69
2022/05/07 10:46:18;;;;;;;26.80;17.13;;;;;;;34.49;23.69;102223.31;5022554;28;20033;-68
2022/05/07 10:48:47;;;;;;;26.20;15.35;;;;;;;33.70;24.40;102225.59;5021710;28;20052;-70
2022/05/07 10:51:18;;;;;;;26.45;15.73;;;;;;;32.72;25.12;102220.47;5020645;28;20029;-69
2022/05/07 10:53:43;;;;;;;24.70;14.50;;;;;;;32.46;26.17;102217.03;5022594;28;20514;-69
2022/05/07 10:56:17;;;;;;;26.10;14.73;;;;;;;32.19;25.30;102218.34;5037650;28;20262;-69
2022/05/07 10:58:54;;;;;;;23.02;14.48;;;;;;;30.75;27.03;102216.22;5021087;28;20503;-70
2022/05/07 11:01:22;;;;;;;24.63;15.52;;;;;;;29.71;29.94;102214.03;5022191;28;20014;-70
2022/05/07 11:03:48;;;;;;;27.17;16.00;;;;;;;27.72;32.75;102215.25;5031766;28;20040;-69
2022/05/07 11:06:14;;;;;;;26.23;15.48;;;;;;;26.55;34.96;102220.97;5022070;28;20037;-68
2022/05/07 11:08:52;;;;;;;27.48;17.60;;;;;;;26.20;37.02;102213.84;5019629;28;20133;-69
2022/05/07 11:11:18;;;;;;;26.75;16.50;;;;;;;25.78;36.35;102218.38;5022497;28;20041;-68
2022/05/07 11:13:45;;;;;;;28.25;15.60;;;;;;;25.76;35.95;102211.38;5024081;28;20618;-69
2022/05/07 11:16:11;;;;;;;24.08;15.43;;;;;;;25.33;36.76;102209.28;5024282;28;20396;-69
2022/05/07 11:18:37;;;;;;;26.58;14.80;;;;;;;25.08;37.47;102212.34;5026180;28;20036;-69
2022/05/07 11:21:03;;;;;;;23.88;15.57;;;;;;;25.11;38.61;102208.97;5023425;28;20033;-69
2022/05/07 11:23:30;;;;;;;25.73;15.75;;;;;;;25.44;36.96;102203.53;5026317;28;20582;-68
2022/05/07 11:25:56;;;;;;;25.47;15.37;;;;;;;25.52;36.45;102197.28;5026383;28;20030;-69
2022/05/07 11:28:21;;;;;;;28.25;16.63;;;;;;;25.23;38.44;102200.94;5024618;28;20272;-68
2022/05/07 11:30:53;;;;;;;27.67;16.80;;;;;;;25.19;39.82;102205.47;5025364;28;20017;-67
2022/05/07 11:33:25;;;;;;;25.27;16.60;;;;;;;24.99;41.58;102202.84;5024823;28;20072;-68
2022/05/07 11:36:24;;;;;;;25.90;17.40;;;;;;;24.79;40.83;102213.16;5011574;28;20174;-69
2022/05/07 11:38:57;;;;;;;26.98;16.88;;;;;;;24.02;41.64;102206.31;5013629;28;20354;-68